sensor_id;sensor_type;location;lat;lon;timestamp;pressure;altitude;pressure_sealevel;temperature;humidity
36600;BME280;35385;55.668;37.508;2023-03-25T00:00:11;98147.94;;;5.32;100.00
36600;BME280;35385;55.668;37.508;2023-03-25T00:01:15;97998.75;;;4.40;100.00
36600;BME280;35385;55.668;37.508;2023-03-25T00:02:16;98131.03;;;5.23;100.00
36600;BME280;35385;55.668;37.508;2023-03-25T00:03:16;98135.22;;;5.26;100.00
36600;BME280;35385;55.668;37.508;2023-03-25T00:04:17;98134.72;;;5.32;100.00
36600;BME280;35385;55.668;37.508;2023-03-25T00:05:20;98132.44;;;5.27;100.00
36600;BME280;35385;55.668;37.508;2023-03-25T00:06:20;98143.34;;;5.34;100.00
36600;BME280;35385;55.668;37.508;2023-03-25T00:07:21;98088.28;;;5.07;100.00
36600;BME280;35385;55.668;37.508;2023-03-25T00:08:23;98135.94;;;5.28;100.00
36600;BME280;35385;55.668;37.508;2023-03-25T00:09:24;98139.41;;;5.28;100.00
36600;BME280;35385;55.668;37.508;2023-03-25T00:10:25;98135.22;;;5.26;100.00
36600;BME280;35385;55.668;37.508;2023-03-25T00:11:25;98126.56;;;5.24;100.00
36600;BME280;35385;55.668;37.508;2023-03-25T00:12:27;98130.63;;;5.28;100.00
36600;BME280;35385;55.668;37.508;2023-03-25T00:13:28;98055.53;;;4.78;100.00
36600;BME280;35385;55.668;37.508;2023-03-25T00:14:31;98133.78;;;5.22;100.00
36600;BME280;35385;55.668;37.508;2023-03-25T00:15:32;98134.38;;;5.25;100.00
36600;BME280;35385;55.668;37.508;2023-03-25T00:16:35;98131.59;;;5.27;100.00
36600;BME280;35385;55.668;37.508;2023-03-25T00:17:36;98114.00;;;5.16;100.00
36600;BME280;35385;55.668;37.508;2023-03-25T00:18:37;98125.00;;;5.21;100.00
36600;BME280;35385;55.668;37.508;2023-03-25T00:19:39;98127.94;;;5.18;100.00
36600;BME280;35385;55.668;37.508;2023-03-25T00:20:40;98077.31;;;4.91;100.00
36600;BME280;35385;55.668;37.508;2023-03-25T00:21:41;98123.91;;;5.24;100.00
36600;BME280;35385;55.668;37.508;2023-03-25T00:22:43;98128.13;;;5.26;100.00
36600;BME280;35385;55.668;37.508;2023-03-25T00:23:44;98119.94;;;5.29;100.00
36600;BME280;35385;55.668;37.508;2023-03-25T00:24:45;98073.66;;;5.03;100.00
36600;BME280;35385;55.668;37.508;2023-03-25T00:25:46;98115.25;;;5.22;100.00
36600;BME280;35385;55.668;37.508;2023-03-25T00:26:47;98122.13;;;5.24;100.00
36600;BME280;35385;55.668;37.508;2023-03-25T00:27:48;98111.53;;;5.24;100.00
36600;BME280;35385;55.668;37.508;2023-03-25T00:28:50;98119.34;;;5.26;100.00
36600;BME280;35385;55.668;37.508;2023-03-25T00:29:50;98104.69;;;5.22;100.00
36600;BME280;35385;55.668;37.508;2023-03-25T00:30:51;98121.59;;;5.30;100.00
36600;BME280;35385;55.668;37.508;2023-03-25T00:31:52;98057.06;;;5.01;100.00
36600;BME280;35385;55.668;37.508;2023-03-25T00:32:53;98100.69;;;5.27;100.00
36600;BME280;35385;55.668;37.508;2023-03-25T00:33:53;98105.25;;;5.25;100.00
36600;BME280;35385;55.668;37.508;2023-03-25T00:34:57;98089.84;;;5.30;100.00
36600;BME280;35385;55.668;37.508;2023-03-25T00:35:58;98099.00;;;5.26;100.00
36600;BME280;35385;55.668;37.508;2023-03-25T00:37:00;98097.31;;;5.25;100.00
36600;BME280;35385;55.668;37.508;2023-03-25T00:38:04;98089.97;;;5.29;100.00
36600;BME280;35385;55.668;37.508;2023-03-25T00:39:07;97990.91;;;4.71;100.00
36600;BME280;35385;55.668;37.508;2023-03-25T00:40:08;98081.88;;;5.30;100.00
36600;BME280;35385;55.668;37.508;2023-03-25T00:41:22;98045.69;;;5.10;100.00
36600;BME280;35385;55.668;37.508;2023-03-25T00:42:24;98085.09;;;5.34;100.00
36600;BME280;35385;55.668;37.508;2023-03-25T00:43:25;98086.94;;;5.33;100.00
36600;BME280;35385;55.668;37.508;2023-03-25T00:44:26;98082.59;;;5.32;100.00
36600;BME280;35385;55.668;37.508;2023-03-25T00:45:27;98074.22;;;5.27;100.00
36600;BME280;35385;55.668;37.508;2023-03-25T00:46:30;98097.91;;;5.29;100.00
36600;BME280;35385;55.668;37.508;2023-03-25T00:47:31;98082.84;;;5.29;100.00
36600;BME280;35385;55.668;37.508;2023-03-25T00:48:32;98041.78;;;5.05;100.00
36600;BME280;35385;55.668;37.508;2023-03-25T00:49:32;98073.25;;;5.28;100.00
36600;BME280;35385;55.668;37.508;2023-03-25T00:50:33;98076.59;;;5.30;100.00
36600;BME280;35385;55.668;37.508;2023-03-25T00:51:33;98062.81;;;5.37;100.00
36600;BME280;35385;55.668;37.508;2023-03-25T00:52:34;98061.44;;;5.32;100.00
36600;BME280;35385;55.668;37.508;2023-03-25T00:53:36;98052.91;;;5.29;100.00
36600;BME280;35385;55.668;37.508;2023-03-25T00:54:36;98068.09;;;5.37;100.00
36600;BME280;35385;55.668;37.508;2023-03-25T00:55:37;98021.16;;;5.08;100.00
36600;BME280;35385;55.668;37.508;2023-03-25T00:56:37;98069.28;;;5.44;100.00
36600;BME280;35385;55.668;37.508;2023-03-25T00:57:38;98061.72;;;5.39;100.00
36600;BME280;35385;55.668;37.508;2023-03-25T00:58:39;98076.97;;;5.47;100.00
36600;BME280;35385;55.668;37.508;2023-03-25T00:59:39;98051.38;;;5.36;100.00
36600;BME280;35385;55.668;37.508;2023-03-25T01:00:40;98071.50;;;5.48;100.00
36600;BME280;35385;55.668;37.508;2023-03-25T01:01:41;98065.78;;;5.43;100.00
36600;BME280;35385;55.668;37.508;2023-03-25T01:02:43;98057.25;;;5.40;100.00
36600;BME280;35385;55.668;37.508;2023-03-25T01:03:44;98060.91;;;5.48;100.00
36600;BME280;35385;55.668;37.508;2023-03-25T01:04:45;98084.59;;;5.50;100.00
36600;BME280;35385;55.668;37.508;2023-03-25T01:05:49;98061.63;;;5.50;100.00
36600;BME280;35385;55.668;37.508;2023-03-25T01:06:50;98060.66;;;5.51;100.00
36600;BME280;35385;55.668;37.508;2023-03-25T01:07:51;98057.16;;;5.51;100.00
36600;BME280;35385;55.668;37.508;2023-03-25T01:08:51;98043.31;;;5.38;100.00
36600;BME280;35385;55.668;37.508;2023-03-25T01:09:52;98056.03;;;5.44;100.00
36600;BME280;35385;55.668;37.508;2023-03-25T01:10:52;97991.53;;;5.14;100.00
36600;BME280;35385;55.668;37.508;2023-03-25T01:11:53;98048.09;;;5.44;100.00
36600;BME280;35385;55.668;37.508;2023-03-25T01:12:54;98051.59;;;5.54;100.00
36600;BME280;35385;55.668;37.508;2023-03-25T01:13:56;98060.13;;;5.57;100.00
36600;BME280;35385;55.668;37.508;2023-03-25T01:15:00;98060.00;;;5.59;100.00
36600;BME280;35385;55.668;37.508;2023-03-25T01:16:00;98057.09;;;5.62;100.00
36600;BME280;35385;55.668;37.508;2023-03-25T01:17:05;98051.22;;;5.68;100.00
36600;BME280;35385;55.668;37.508;2023-03-25T01:18:06;98050.00;;;5.72;100.00
36600;BME280;35385;55.668;37.508;2023-03-25T01:19:06;98056.84;;;5.75;100.00
36600;BME280;35385;55.668;37.508;2023-03-25T01:20:07;98054.00;;;5.66;100.00
36600;BME280;35385;55.668;37.508;2023-03-25T01:21:09;98013.09;;;5.40;100.00
36600;BME280;35385;55.668;37.508;2023-03-25T01:22:09;98050.66;;;5.64;100.00
36600;BME280;35385;55.668;37.508;2023-03-25T01:23:10;98062.50;;;5.60;100.00
36600;BME280;35385;55.668;37.508;2023-03-25T01:24:12;98054.56;;;5.60;100.00
36600;BME280;35385;55.668;37.508;2023-03-25T01:25:14;98043.00;;;5.61;100.00
36600;BME280;35385;55.668;37.508;2023-03-25T01:26:15;97990.16;;;5.20;100.00
36600;BME280;35385;55.668;37.508;2023-03-25T01:27:15;98044.81;;;5.61;100.00
36600;BME280;35385;55.668;37.508;2023-03-25T01:28:16;98053.44;;;5.63;100.00
36600;BME280;35385;55.668;37.508;2023-03-25T01:29:19;98056.78;;;5.55;100.00
36600;BME280;35385;55.668;37.508;2023-03-25T01:30:20;98059.28;;;5.57;100.00
36600;BME280;35385;55.668;37.508;2023-03-25T01:31:21;98045.19;;;5.47;100.00
36600;BME280;35385;55.668;37.508;2023-03-25T01:32:29;98022.97;;;5.38;100.00
36600;BME280;35385;55.668;37.508;2023-03-25T01:33:30;98043.88;;;5.41;100.00
36600;BME280;35385;55.668;37.508;2023-03-25T01:34:31;98041.63;;;5.37;100.00
36600;BME280;35385;55.668;37.508;2023-03-25T01:35:32;98039.94;;;5.36;100.00
36600;BME280;35385;55.668;37.508;2023-03-25T01:36:33;98026.44;;;5.39;100.00
36600;BME280;35385;55.668;37.508;2023-03-25T01:37:37;98022.13;;;5.38;100.00
36600;BME280;35385;55.668;37.508;2023-03-25T01:38:39;98039.19;;;5.45;100.00
36600;BME280;35385;55.668;37.508;2023-03-25T01:39:40;98004.41;;;5.28;100.00
36600;BME280;35385;55.668;37.508;2023-03-25T01:40:40;98032.47;;;5.41;100.00
36600;BME280;35385;55.668;37.508;2023-03-25T01:41:41;98029.09;;;5.39;100.00
36600;BME280;35385;55.668;37.508;2023-03-25T01:42:42;98031.88;;;5.37;100.00
36600;BME280;35385;55.668;37.508;2023-03-25T01:44:00;97974.22;;;5.10;100.00
36600;BME280;35385;55.668;37.508;2023-03-25T01:45:27;98014.44;;;5.34;100.00
36600;BME280;35385;55.668;37.508;2023-03-25T01:46:28;98023.81;;;5.39;100.00
36600;BME280;35385;55.668;37.508;2023-03-25T01:47:29;97969.91;;;5.09;100.00
36600;BME280;35385;55.668;37.508;2023-03-25T01:48:39;98012.38;;;5.38;100.00
36600;BME280;35385;55.668;37.508;2023-03-25T01:49:43;98004.41;;;5.28;100.00
36600;BME280;35385;55.668;37.508;2023-03-25T01:50:53;98019.06;;;5.32;100.00
36600;BME280;35385;55.668;37.508;2023-03-25T01:52:04;97955.56;;;5.02;100.00
36600;BME280;35385;55.668;37.508;2023-03-25T01:53:07;97991.69;;;5.22;100.00
36600;BME280;35385;55.668;37.508;2023-03-25T01:54:08;97950.25;;;5.02;100.00
36600;BME280;35385;55.668;37.508;2023-03-25T01:55:09;97984.19;;;5.27;100.00
36600;BME280;35385;55.668;37.508;2023-03-25T01:56:12;97994.25;;;5.33;100.00
36600;BME280;35385;55.668;37.508;2023-03-25T01:57:18;97988.41;;;5.40;100.00
36600;BME280;35385;55.668;37.508;2023-03-25T01:58:20;97988.41;;;5.40;100.00
36600;BME280;35385;55.668;37.508;2023-03-25T01:59:24;97984.22;;;5.37;100.00
36600;BME280;35385;55.668;37.508;2023-03-25T02:00:26;97990.25;;;5.49;100.00
36600;BME280;35385;55.668;37.508;2023-03-25T02:01:27;97997.66;;;5.55;100.00
36600;BME280;35385;55.668;37.508;2023-03-25T02:02:27;97955.09;;;5.27;100.00
36600;BME280;35385;55.668;37.508;2023-03-25T02:03:36;97989.56;;;5.47;100.00
36600;BME280;35385;55.668;37.508;2023-03-25T02:04:43;97988.31;;;5.51;100.00
36600;BME280;35385;55.668;37.508;2023-03-25T02:06:02;97961.22;;;5.28;100.00
36600;BME280;35385;55.668;37.508;2023-03-25T02:07:06;97985.13;;;5.47;100.00
36600;BME280;35385;55.668;37.508;2023-03-25T02:08:11;97961.47;;;5.25;100.00
36600;BME280;35385;55.668;37.508;2023-03-25T02:09:16;97928.16;;;5.22;100.00
36600;BME280;35385;55.668;37.508;2023-03-25T02:10:19;97974.47;;;5.38;100.00
36600;BME280;35385;55.668;37.508;2023-03-25T02:11:21;97932.91;;;5.19;100.00
36600;BME280;35385;55.668;37.508;2023-03-25T02:12:24;97987.19;;;5.44;100.00
36600;BME280;35385;55.668;37.508;2023-03-25T02:13:25;97947.66;;;5.21;100.00
36600;BME280;35385;55.668;37.508;2023-03-25T02:14:28;97989.97;;;5.42;100.00
36600;BME280;35385;55.668;37.508;2023-03-25T02:18:55;97989.53;;;5.37;100.00
36600;BME280;35385;55.668;37.508;2023-03-25T02:21:35;97999.81;;;5.30;100.00
36600;BME280;35385;55.668;37.508;2023-03-25T02:23:59;97982.97;;;5.31;100.00
36600;BME280;35385;55.668;37.508;2023-03-25T02:25:34;97895.59;;;4.82;100.00
36600;BME280;35385;55.668;37.508;2023-03-25T02:30:50;97970.00;;;5.28;100.00
36600;BME280;35385;55.668;37.508;2023-03-25T02:32:05;97954.38;;;5.35;100.00
36600;BME280;35385;55.668;37.508;2023-03-25T02:41:10;97958.44;;;5.39;100.00
36600;BME280;35385;55.668;37.508;2023-03-25T02:44:40;97940.75;;;5.40;100.00
36600;BME280;35385;55.668;37.508;2023-03-25T02:45:50;97928.50;;;5.39;100.00
36600;BME280;35385;55.668;37.508;2023-03-25T02:46:54;97931.31;;;5.47;100.00
36600;BME280;35385;55.668;37.508;2023-03-25T02:48:00;97939.09;;;5.48;100.00
36600;BME280;35385;55.668;37.508;2023-03-25T02:49:09;97931.00;;;5.50;100.00
36600;BME280;35385;55.668;37.508;2023-03-25T02:50:23;97933.53;;;5.51;100.00
36600;BME280;35385;55.668;37.508;2023-03-25T02:51:31;97927.41;;;5.51;100.00
36600;BME280;35385;55.668;37.508;2023-03-25T02:52:43;97921.56;;;5.57;100.00
36600;BME280;35385;55.668;37.508;2023-03-25T02:53:48;97945.41;;;5.57;100.00
36600;BME280;35385;55.668;37.508;2023-03-25T02:54:51;97925.88;;;5.58;100.00
36600;BME280;35385;55.668;37.508;2023-03-25T02:56:00;97919.75;;;5.57;100.00
36600;BME280;35385;55.668;37.508;2023-03-25T02:57:04;97867.31;;;5.32;100.00
36600;BME280;35385;55.668;37.508;2023-03-25T02:58:09;97931.59;;;5.63;100.00
36600;BME280;35385;55.668;37.508;2023-03-25T02:59:12;97885.84;;;5.42;100.00
36600;BME280;35385;55.668;37.508;2023-03-25T03:00:16;97932.16;;;5.66;100.00
36600;BME280;35385;55.668;37.508;2023-03-25T03:01:18;97925.31;;;5.64;100.00
36600;BME280;35385;55.668;37.508;2023-03-25T03:02:20;97926.88;;;5.66;100.00
36600;BME280;35385;55.668;37.508;2023-03-25T03:03:21;97912.66;;;5.67;100.00
36600;BME280;35385;55.668;37.508;2023-03-25T03:04:21;97924.34;;;5.65;100.00
36600;BME280;35385;55.668;37.508;2023-03-25T03:05:30;97919.34;;;5.62;100.00
36600;BME280;35385;55.668;37.508;2023-03-25T03:06:34;97913.03;;;5.63;100.00
36600;BME280;35385;55.668;37.508;2023-03-25T03:07:40;97922.84;;;5.72;100.00
36600;BME280;35385;55.668;37.508;2023-03-25T03:10:38;97904.69;;;5.77;100.00
36600;BME280;35385;55.668;37.508;2023-03-25T03:11:28;97874.44;;;5.51;100.00
36600;BME280;35385;55.668;37.508;2023-03-25T03:12:44;97902.22;;;5.76;100.00
36600;BME280;35385;55.668;37.508;2023-03-25T03:14:23;97901.38;;;5.75;100.00
36600;BME280;35385;55.668;37.508;2023-03-25T03:15:36;97893.81;;;5.80;100.00
36600;BME280;35385;55.668;37.508;2023-03-25T03:18:23;97882.84;;;5.75;100.00
36600;BME280;35385;55.668;37.508;2023-03-25T03:23:02;97890.50;;;5.88;100.00
36600;BME280;35385;55.668;37.508;2023-03-25T03:24:14;97878.13;;;5.88;100.00
36600;BME280;35385;55.668;37.508;2023-03-25T03:25:21;97851.03;;;5.65;100.00
36600;BME280;35385;55.668;37.508;2023-03-25T03:30:13;97884.09;;;6.00;100.00
36600;BME280;35385;55.668;37.508;2023-03-25T03:31:24;97841.13;;;5.77;100.00
36600;BME280;35385;55.668;37.508;2023-03-25T03:33:56;97864.00;;;5.97;100.00
36600;BME280;35385;55.668;37.508;2023-03-25T03:35:04;97862.75;;;6.01;100.00
36600;BME280;35385;55.668;37.508;2023-03-25T03:36:09;97859.38;;;6.09;100.00
36600;BME280;35385;55.668;37.508;2023-03-25T03:37:15;97871.09;;;6.07;100.00
36600;BME280;35385;55.668;37.508;2023-03-25T03:38:20;97817.25;;;5.77;100.00
36600;BME280;35385;55.668;37.508;2023-03-25T03:39:27;97849.06;;;6.06;100.00
36600;BME280;35385;55.668;37.508;2023-03-25T03:40:31;97855.75;;;6.10;100.00
36600;BME280;35385;55.668;37.508;2023-03-25T03:41:35;97849.06;;;6.16;100.00
36600;BME280;35385;55.668;37.508;2023-03-25T03:42:49;97852.81;;;6.23;100.00
36600;BME280;35385;55.668;37.508;2023-03-25T03:44:01;97846.25;;;6.27;100.00
36600;BME280;35385;55.668;37.508;2023-03-25T03:45:11;97852.38;;;6.27;100.00
36600;BME280;35385;55.668;37.508;2023-03-25T03:46:23;97786.97;;;6.09;100.00
36600;BME280;35385;55.668;37.508;2023-03-25T03:47:30;97838.69;;;6.32;100.00
36600;BME280;35385;55.668;37.508;2023-03-25T03:48:39;97844.53;;;6.35;100.00
36600;BME280;35385;55.668;37.508;2023-03-25T03:49:45;97830.72;;;6.42;100.00
36600;BME280;35385;55.668;37.508;2023-03-25T03:50:52;97855.28;;;6.44;100.00
36600;BME280;35385;55.668;37.508;2023-03-25T03:52:02;97836.56;;;6.45;100.00
36600;BME280;35385;55.668;37.508;2023-03-25T03:53:31;97844.81;;;6.42;100.00
36600;BME280;35385;55.668;37.508;2023-03-25T03:54:53;97778.59;;;6.13;100.00
36600;BME280;35385;55.668;37.508;2023-03-25T03:56:02;97824.00;;;6.37;100.00
36600;BME280;35385;55.668;37.508;2023-03-25T03:57:27;97796.75;;;6.18;100.00
36600;BME280;35385;55.668;37.508;2023-03-25T03:58:33;97784.47;;;6.17;100.00
36600;BME280;35385;55.668;37.508;2023-03-25T04:02:02;97823.03;;;6.48;100.00
36600;BME280;35385;55.668;37.508;2023-03-25T04:03:20;97819.13;;;6.43;100.00
36600;BME280;35385;55.668;37.508;2023-03-25T04:04:25;97790.16;;;6.22;100.00
36600;BME280;35385;55.668;37.508;2023-03-25T04:05:26;97811.31;;;6.41;100.00
36600;BME280;35385;55.668;37.508;2023-03-25T04:06:40;97812.09;;;6.51;100.00
36600;BME280;35385;55.668;37.508;2023-03-25T04:07:47;97815.44;;;6.53;100.00
36600;BME280;35385;55.668;37.508;2023-03-25T04:08:58;97812.50;;;6.56;100.00
36600;BME280;35385;55.668;37.508;2023-03-25T04:11:15;97809.84;;;6.56;100.00
36600;BME280;35385;55.668;37.508;2023-03-25T04:12:23;97796.69;;;6.64;100.00
36600;BME280;35385;55.668;37.508;2023-03-25T04:13:29;97809.94;;;6.64;100.00
36600;BME280;35385;55.668;37.508;2023-03-25T04:14:32;97760.34;;;6.47;100.00
36600;BME280;35385;55.668;37.508;2023-03-25T04:15:32;97795.34;;;6.78;100.00
36600;BME280;35385;55.668;37.508;2023-03-25T04:16:33;97802.25;;;6.71;100.00
36600;BME280;35385;55.668;37.508;2023-03-25T04:17:36;97757.09;;;6.53;100.00
36600;BME280;35385;55.668;37.508;2023-03-25T04:18:37;97794.28;;;6.71;100.00
36600;BME280;35385;55.668;37.508;2023-03-25T04:19:38;97791.09;;;6.67;100.00
36600;BME280;35385;55.668;37.508;2023-03-25T04:20:39;97808.38;;;6.71;100.00
36600;BME280;35385;55.668;37.508;2023-03-25T04:21:44;97798.75;;;6.70;100.00
36600;BME280;35385;55.668;37.508;2023-03-25T04:22:47;97795.41;;;6.68;100.00
36600;BME280;35385;55.668;37.508;2023-03-25T04:23:48;97750.47;;;6.39;100.00
36600;BME280;35385;55.668;37.508;2023-03-25T04:24:49;97789.81;;;6.71;100.00
36600;BME280;35385;55.668;37.508;2023-03-25T04:25:50;97779.63;;;6.67;100.00
36600;BME280;35385;55.668;37.508;2023-03-25T04:26:54;97772.63;;;6.76;100.00
36600;BME280;35385;55.668;37.508;2023-03-25T04:27:57;97777.03;;;6.85;100.00
36600;BME280;35385;55.668;37.508;2023-03-25T04:29:02;97706.97;;;6.32;100.00
36600;BME280;35385;55.668;37.508;2023-03-25T04:30:04;97784.59;;;6.80;100.00
36600;BME280;35385;55.668;37.508;2023-03-25T04:31:11;97777.72;;;6.87;100.00
36600;BME280;35385;55.668;37.508;2023-03-25T04:32:14;97788.47;;;6.85;100.00
36600;BME280;35385;55.668;37.508;2023-03-25T04:33:16;97776.06;;;6.86;100.00
36600;BME280;35385;55.668;37.508;2023-03-25T04:34:20;97778.56;;;6.87;100.00
36600;BME280;35385;55.668;37.508;2023-03-25T04:35:20;97767.53;;;6.82;100.00
36600;BME280;35385;55.668;37.508;2023-03-25T04:36:21;97759.84;;;6.89;100.00
36600;BME280;35385;55.668;37.508;2023-03-25T04:37:25;97757.47;;;6.86;100.00
36600;BME280;35385;55.668;37.508;2023-03-25T04:38:26;97773.78;;;6.91;100.00
36600;BME280;35385;55.668;37.508;2023-03-25T04:39:27;97769.00;;;6.94;100.00
36600;BME280;35385;55.668;37.508;2023-03-25T04:40:28;97765.91;;;6.99;100.00
36600;BME280;35385;55.668;37.508;2023-03-25T04:41:29;97769.94;;;7.03;100.00
36600;BME280;35385;55.668;37.508;2023-03-25T04:42:31;97761.22;;;7.10;100.00
36600;BME280;35385;55.668;37.508;2023-03-25T04:43:32;97755.31;;;7.17;100.00
36600;BME280;35385;55.668;37.508;2023-03-25T04:44:32;97768.44;;;7.18;100.00
36600;BME280;35385;55.668;37.508;2023-03-25T04:45:38;97702.66;;;6.94;100.00
36600;BME280;35385;55.668;37.508;2023-03-25T04:46:38;97737.16;;;7.12;100.00
36600;BME280;35385;55.668;37.508;2023-03-25T04:47:39;97749.72;;;7.20;100.00
36600;BME280;35385;55.668;37.508;2023-03-25T04:48:46;97719.13;;;6.98;100.00
36600;BME280;35385;55.668;37.508;2023-03-25T04:49:46;97723.00;;;7.21;100.00
36600;BME280;35385;55.668;37.508;2023-03-25T04:50:47;97739.28;;;7.26;100.00
36600;BME280;35385;55.668;37.508;2023-03-25T04:51:49;97738.56;;;7.34;100.00
36600;BME280;35385;55.668;37.508;2023-03-25T04:52:51;97725.72;;;7.29;100.00
36600;BME280;35385;55.668;37.508;2023-03-25T04:53:56;97727.44;;;7.38;100.00
36600;BME280;35385;55.668;37.508;2023-03-25T04:54:57;97725.47;;;7.40;100.00
36600;BME280;35385;55.668;37.508;2023-03-25T04:55:57;97729.13;;;7.39;100.00
36600;BME280;35385;55.668;37.508;2023-03-25T04:56:58;97721.16;;;7.39;100.00
36600;BME280;35385;55.668;37.508;2023-03-25T04:57:58;97728.59;;;7.36;100.00
36600;BME280;35385;55.668;37.508;2023-03-25T04:58:59;97732.75;;;7.38;100.00
36600;BME280;35385;55.668;37.508;2023-03-25T04:59:59;97702.97;;;7.09;100.00
36600;BME280;35385;55.668;37.508;2023-03-25T05:01:00;97733.00;;;7.27;100.00
36600;BME280;35385;55.668;37.508;2023-03-25T05:02:05;97691.19;;;6.94;100.00
36600;BME280;35385;55.668;37.508;2023-03-25T05:03:08;97725.28;;;7.16;100.00
36600;BME280;35385;55.668;37.508;2023-03-25T05:04:11;97742.19;;;7.15;100.00
36600;BME280;35385;55.668;37.508;2023-03-25T05:05:15;97747.09;;;7.10;100.00
36600;BME280;35385;55.668;37.508;2023-03-25T05:06:17;97748.72;;;7.03;100.00
36600;BME280;35385;55.668;37.508;2023-03-25T05:07:18;97731.25;;;7.00;100.00
36600;BME280;35385;55.668;37.508;2023-03-25T05:08:19;97720.91;;;6.80;100.00
36600;BME280;35385;55.668;37.508;2023-03-25T05:09:20;97723.84;;;7.04;100.00
36600;BME280;35385;55.668;37.508;2023-03-25T05:10:23;97709.72;;;6.86;100.00
36600;BME280;35385;55.668;37.508;2023-03-25T05:11:23;97731.88;;;7.12;100.00
36600;BME280;35385;55.668;37.508;2023-03-25T05:12:24;97728.47;;;7.20;100.00
36600;BME280;35385;55.668;37.508;2023-03-25T05:13:24;97743.47;;;7.11;100.00
36600;BME280;35385;55.668;37.508;2023-03-25T05:14:25;97717.41;;;7.06;100.00
36600;BME280;35385;55.668;37.508;2023-03-25T05:15:26;97728.44;;;7.02;100.00
36600;BME280;35385;55.668;37.508;2023-03-25T05:16:28;97734.19;;;6.97;100.00
36600;BME280;35385;55.668;37.508;2023-03-25T05:17:28;97729.97;;;7.04;100.00
36600;BME280;35385;55.668;37.508;2023-03-25T05:18:29;97731.78;;;7.04;100.00
36600;BME280;35385;55.668;37.508;2023-03-25T05:19:30;97738.78;;;7.05;100.00
36600;BME280;35385;55.668;37.508;2023-03-25T05:20:36;97735.88;;;6.98;100.00
36600;BME280;35385;55.668;37.508;2023-03-25T05:21:40;97743.28;;;6.95;100.00
36600;BME280;35385;55.668;37.508;2023-03-25T05:22:41;97734.50;;;6.94;100.00
36600;BME280;35385;55.668;37.508;2023-03-25T05:23:42;97743.97;;;6.97;100.00
36600;BME280;35385;55.668;37.508;2023-03-25T05:24:43;97744.28;;;6.94;100.00
36600;BME280;35385;55.668;37.508;2023-03-25T05:25:45;97694.41;;;6.52;100.00
36600;BME280;35385;55.668;37.508;2023-03-25T05:26:46;97693.91;;;6.66;100.00
36600;BME280;35385;55.668;37.508;2023-03-25T05:27:47;97692.94;;;6.67;100.00
36600;BME280;35385;55.668;37.508;2023-03-25T05:28:48;97745.94;;;6.95;100.00
36600;BME280;35385;55.668;37.508;2023-03-25T05:29:50;97731.69;;;6.96;100.00
36600;BME280;35385;55.668;37.508;2023-03-25T05:30:51;97691.66;;;6.71;100.00
36600;BME280;35385;55.668;37.508;2023-03-25T05:31:51;97731.09;;;7.02;100.00
36600;BME280;35385;55.668;37.508;2023-03-25T05:32:52;97692.41;;;6.82;100.00
36600;BME280;35385;55.668;37.508;2023-03-25T05:33:52;97678.22;;;6.55;100.00
36600;BME280;35385;55.668;37.508;2023-03-25T05:34:56;97737.25;;;7.02;100.00
36600;BME280;35385;55.668;37.508;2023-03-25T05:35:57;97695.81;;;6.74;100.00
36600;BME280;35385;55.668;37.508;2023-03-25T05:36:58;97729.34;;;7.10;100.00
36600;BME280;35385;55.668;37.508;2023-03-25T05:37:58;97745.06;;;7.04;100.00
36600;BME280;35385;55.668;37.508;2023-03-25T05:38:59;97727.91;;;6.98;100.00
36600;BME280;35385;55.668;37.508;2023-03-25T05:40:00;97694.16;;;6.73;100.00
36600;BME280;35385;55.668;37.508;2023-03-25T05:41:01;97725.03;;;6.92;100.00
36600;BME280;35385;55.668;37.508;2023-03-25T05:42:02;97731.41;;;6.99;100.00
36600;BME280;35385;55.668;37.508;2023-03-25T05:43:03;97679.81;;;6.66;100.00
36600;BME280;35385;55.668;37.508;2023-03-25T05:44:07;97734.00;;;6.91;100.00
36600;BME280;35385;55.668;37.508;2023-03-25T05:45:09;97711.69;;;7.01;100.00
36600;BME280;35385;55.668;37.508;2023-03-25T05:46:09;97722.00;;;7.04;100.00
36600;BME280;35385;55.668;37.508;2023-03-25T05:47:10;97670.06;;;6.84;100.00
36600;BME280;35385;55.668;37.508;2023-03-25T05:48:11;97721.88;;;7.06;100.00
36600;BME280;35385;55.668;37.508;2023-03-25T05:49:12;97711.06;;;7.07;100.00
36600;BME280;35385;55.668;37.508;2023-03-25T05:50:12;97704.72;;;7.00;100.00
36600;BME280;35385;55.668;37.508;2023-03-25T05:51:17;97723.50;;;7.07;100.00
36600;BME280;35385;55.668;37.508;2023-03-25T05:52:20;97709.78;;;7.12;100.00
36600;BME280;35385;55.668;37.508;2023-03-25T05:53:23;97689.84;;;6.90;100.00
36600;BME280;35385;55.668;37.508;2023-03-25T05:54:24;97714.25;;;7.11;100.00
36600;BME280;35385;55.668;37.508;2023-03-25T05:55:25;97736.63;;;7.08;100.00
36600;BME280;35385;55.668;37.508;2023-03-25T05:56:26;97728.81;;;7.07;100.00
36600;BME280;35385;55.668;37.508;2023-03-25T05:57:27;97720.56;;;7.10;100.00
36600;BME280;35385;55.668;37.508;2023-03-25T05:58:27;97730.44;;;7.18;100.00
36600;BME280;35385;55.668;37.508;2023-03-25T05:59:28;97722.53;;;7.26;100.00
36600;BME280;35385;55.668;37.508;2023-03-25T06:00:29;97728.28;;;7.39;100.00
36600;BME280;35385;55.668;37.508;2023-03-25T06:01:30;97724.88;;;7.47;100.00
36600;BME280;35385;55.668;37.508;2023-03-25T06:02:33;97723.56;;;7.51;100.00
36600;BME280;35385;55.668;37.508;2023-03-25T06:03:34;97693.44;;;7.42;100.00
36600;BME280;35385;55.668;37.508;2023-03-25T06:04:35;97682.56;;;7.53;100.00
36600;BME280;35385;55.668;37.508;2023-03-25T06:05:40;97730.03;;;7.92;100.00
36600;BME280;35385;55.668;37.508;2023-03-25T06:06:41;97717.63;;;8.08;100.00
36600;BME280;35385;55.668;37.508;2023-03-25T06:07:43;97721.22;;;8.51;100.00
36600;BME280;35385;55.668;37.508;2023-03-25T06:08:48;97727.25;;;8.61;100.00